Time;durP1;ratioP1;P1;durP2;ratioP2;P2;SDS_P1;SDS_P2;PMS_P1;PMS_P2;Temp;Humidity;BMP_temperature;BMP_pressure;BME280_temperature;BME280_humidity;BME280_pressure;Samples;Min_cycle;Max_cycle;Signal;HPM_P1;HPM_P2
2022/01/09 00:00:56;;;;;;;33.87;18.50;;;-2.30;99.90;;;;;;8415873;28;20213;-66
2022/01/09 00:04:57;;;;;;;41.13;19.23;;;-2.40;99.90;;;;;;8413645;28;20677;-66
2022/01/09 00:08:58;;;;;;;36.17;18.47;;;-2.30;99.90;;;;;;8409460;28;20186;-63
2022/01/09 00:12:59;;;;;;;31.90;17.87;;;-2.30;99.90;;;;;;8405022;28;20188;-63
2022/01/09 00:17:00;;;;;;;31.57;17.20;;;-2.40;99.90;;;;;;8411708;28;20278;-63
2022/01/09 00:21:05;;;;;;;33.73;18.40;;;-2.50;99.90;;;;;;8410811;28;20176;-63
2022/01/09 00:25:07;;;;;;;34.10;18.00;;;-2.60;99.90;;;;;;8420570;28;20212;-63
2022/01/09 00:29:09;;;;;;;29.50;15.70;;;-2.60;99.90;;;;;;8420956;28;20245;-63
2022/01/09 00:33:10;;;;;;;35.20;18.23;;;-2.70;99.90;;;;;;8417784;28;20189;-63
2022/01/09 00:37:11;;;;;;;32.10;17.13;;;-2.70;99.90;;;;;;8413861;28;20620;-62
2022/01/09 00:41:12;;;;;;;33.73;16.07;;;-2.60;99.90;;;;;;8417777;28;20195;-62
2022/01/09 00:45:13;;;;;;;30.00;15.87;;;-2.60;99.90;;;;;;8421834;28;20216;-63
2022/01/09 00:49:14;;;;;;;28.93;15.80;;;-2.60;99.90;;;;;;8422065;28;20191;-64
2022/01/09 00:53:15;;;;;;;29.90;15.53;;;-2.70;99.90;;;;;;8415817;28;20181;-62
2022/01/09 00:57:16;;;;;;;28.97;15.30;;;-2.70;99.90;;;;;;8408632;28;20180;-65
2022/01/09 01:01:17;;;;;;;32.37;15.63;;;-2.80;99.90;;;;;;8416071;28;20191;-62
2022/01/09 01:05:19;;;;;;;27.73;15.60;;;-2.80;99.90;;;;;;8420491;28;20250;-62
2022/01/09 01:09:21;;;;;;;29.20;16.50;;;-2.90;99.90;;;;;;8420879;28;20181;-63
2022/01/09 01:13:21;;;;;;;23.37;13.13;;;-3.00;99.90;;;;;;8420555;28;20183;-64
2022/01/09 01:17:23;;;;;;;31.03;14.73;;;-3.10;99.90;;;;;;8421466;28;20204;-62
2022/01/09 01:21:24;;;;;;;28.43;15.13;;;-3.20;99.90;;;;;;8422672;28;20184;-62
2022/01/09 01:25:25;;;;;;;31.40;13.53;;;-3.20;99.90;;;;;;8420293;28;20243;-63
2022/01/09 01:29:26;;;;;;;30.67;14.93;;;-3.30;99.90;;;;;;8406076;28;20189;-63
2022/01/09 01:33:27;;;;;;;48.47;21.53;;;-3.30;99.90;;;;;;8417344;28;20187;-63
2022/01/09 01:37:28;;;;;;;47.83;23.27;;;-3.20;99.90;;;;;;8406286;28;20249;-62
2022/01/09 01:41:29;;;;;;;58.13;25.43;;;-3.10;99.90;;;;;;8417688;28;20211;-64
2022/01/09 01:45:29;;;;;;;45.33;21.83;;;-3.10;99.90;;;;;;8422362;28;20212;-62
2022/01/09 01:49:31;;;;;;;42.80;19.43;;;-3.10;99.90;;;;;;8412590;28;20192;-62
2022/01/09 01:53:32;;;;;;;39.97;18.53;;;-3.20;99.90;;;;;;8421813;28;20188;-62
2022/01/09 01:57:34;;;;;;;27.97;15.07;;;-3.40;99.90;;;;;;8401924;28;20199;-62
2022/01/09 02:01:36;;;;;;;29.73;14.87;;;-3.60;99.90;;;;;;8417790;28;20188;-62
2022/01/09 02:05:40;;;;;;;27.30;14.63;;;-3.70;99.90;;;;;;8412033;28;20211;-64
2022/01/09 02:09:41;;;;;;;25.17;13.50;;;-3.80;99.90;;;;;;8419510;28;20184;-63
2022/01/09 02:13:45;;;;;;;33.53;15.37;;;-3.80;99.90;;;;;;8418826;28;20180;-65
2022/01/09 02:17:46;;;;;;;26.07;13.43;;;-3.90;99.90;;;;;;8409730;28;20232;-65
2022/01/09 02:21:47;;;;;;;28.10;13.50;;;-4.00;99.90;;;;;;8408199;28;20180;-65
2022/01/09 02:25:49;;;;;;;27.47;15.23;;;-4.10;99.90;;;;;;8415583;28;20199;-64
2022/01/09 02:29:49;;;;;;;26.37;12.83;;;-4.00;99.90;;;;;;8415025;28;20201;-65
2022/01/09 02:33:50;;;;;;;26.40;12.67;;;-4.00;99.90;;;;;;8419664;28;20192;-65
2022/01/09 02:37:51;;;;;;;28.37;12.43;;;-4.00;99.90;;;;;;8407570;28;20187;-65
2022/01/09 02:41:52;;;;;;;32.43;15.17;;;-4.00;99.90;;;;;;8419060;28;20199;-66
2022/01/09 02:51:01;;;;;;;29.87;14.87;;;-4.10;99.90;;;;;;8420122;28;20187;-64
2022/01/09 02:58:55;;;;;;;22.30;12.20;;;-4.20;99.90;;;;;;8418103;28;20244;-67
2022/01/09 03:02:57;;;;;;;24.07;11.97;;;-4.20;99.90;;;;;;8413792;28;20191;-67
2022/01/09 03:06:58;;;;;;;22.53;11.57;;;-4.20;99.90;;;;;;8413274;28;20281;-65
2022/01/09 03:10:59;;;;;;;25.43;11.83;;;-4.30;99.90;;;;;;8417835;28;20185;-65
2022/01/09 03:15:00;;;;;;;23.83;12.60;;;-4.40;99.90;;;;;;8408934;28;20215;-66
2022/01/09 03:19:01;;;;;;;21.27;11.60;;;-4.50;99.90;;;;;;8415511;28;20184;-66
2022/01/09 03:23:02;;;;;;;24.37;11.40;;;-4.60;99.90;;;;;;8403162;28;20177;-65
2022/01/09 03:27:03;;;;;;;21.90;10.87;;;-4.70;99.90;;;;;;8417353;28;20200;-65
2022/01/09 03:31:04;;;;;;;26.97;12.17;;;-4.70;99.90;;;;;;8418030;28;20194;-66
2022/01/09 03:35:07;;;;;;;23.50;11.10;;;-4.60;99.90;;;;;;8416543;28;20176;-65
2022/01/09 03:39:08;;;;;;;26.30;12.87;;;-4.60;99.90;;;;;;8414981;28;20204;-65
2022/01/09 03:43:09;;;;;;;26.30;12.97;;;-4.60;99.90;;;;;;8414570;28;20348;-65
2022/01/09 03:47:10;;;;;;;27.60;12.77;;;-4.60;99.90;;;;;;8415733;28;20291;-66
2022/01/09 03:51:11;;;;;;;24.03;13.33;;;-4.60;99.90;;;;;;8415985;28;20192;-67
2022/01/09 03:55:12;;;;;;;22.47;11.87;;;-4.60;99.90;;;;;;8416827;28;20184;-65
2022/01/09 03:59:13;;;;;;;29.00;13.63;;;-4.70;99.90;;;;;;8422934;28;20221;-65
2022/01/09 04:03:14;;;;;;;25.70;12.17;;;-4.80;99.90;;;;;;8422965;28;20259;-67
2022/01/09 04:07:16;;;;;;;20.70;11.67;;;-4.80;99.90;;;;;;8423089;28;20191;-65
2022/01/09 04:11:23;;;;;;;18.60;9.43;;;-5.00;99.90;;;;;;8421112;28;20183;-65
2022/01/09 04:15:26;;;;;;;21.10;10.47;;;-5.10;99.90;;;;;;8420870;28;20295;-64
2022/01/09 04:19:26;;;;;;;26.77;11.47;;;-5.10;99.90;;;;;;8394025;28;20202;-67
2022/01/09 04:23:27;;;;;;;23.77;11.43;;;-5.00;99.90;;;;;;8417544;28;20608;-65
2022/01/09 04:27:28;;;;;;;16.87;9.63;;;-5.00;99.90;;;;;;8419223;28;20187;-65
2022/01/09 04:31:29;;;;;;;24.37;10.67;;;-5.00;99.90;;;;;;8418628;28;20211;-65
2022/01/09 04:35:30;;;;;;;18.60;10.40;;;-5.10;99.90;;;;;;8420652;28;20180;-66
2022/01/09 04:39:31;;;;;;;20.07;9.73;;;-5.10;99.90;;;;;;8422491;28;20642;-65
2022/01/09 04:43:32;;;;;;;25.37;9.93;;;-5.20;99.90;;;;;;8422453;28;20270;-66
2022/01/09 04:47:34;;;;;;;16.67;9.27;;;-5.30;99.90;;;;;;8422227;28;20181;-71
2022/01/09 04:51:34;;;;;;;23.00;8.97;;;-5.40;99.90;;;;;;8421046;28;20240;-66
2022/01/09 04:55:41;;;;;;;23.97;10.70;;;-5.40;99.90;;;;;;8421407;28;20493;-65
2022/01/09 04:59:42;;;;;;;21.40;11.17;;;-5.40;99.90;;;;;;8422179;28;20191;-66
2022/01/09 05:03:43;;;;;;;23.33;11.17;;;-5.40;99.90;;;;;;8422376;28;20230;-66
2022/01/09 05:07:45;;;;;;;20.43;10.13;;;-5.30;99.90;;;;;;8420206;28;20197;-65
2022/01/09 05:11:46;;;;;;;22.00;11.03;;;-5.20;99.90;;;;;;8419068;28;20235;-65
2022/01/09 05:15:47;;;;;;;24.70;11.63;;;-5.30;99.90;;;;;;8420022;28;20207;-74
2022/01/09 05:19:51;;;;;;;29.60;13.37;;;-5.30;99.90;;;;;;8420069;28;20222;-65
2022/01/09 05:23:52;;;;;;;25.97;11.77;;;-5.30;99.90;;;;;;8419662;28;20204;-66
2022/01/09 05:27:53;;;;;;;29.20;14.47;;;-5.40;99.90;;;;;;8419028;28;20190;-65
2022/01/09 05:31:54;;;;;;;35.07;14.50;;;-5.40;99.90;;;;;;8419091;28;20421;-65
2022/01/09 05:35:54;;;;;;;37.87;18.70;;;-5.50;99.90;;;;;;8421577;28;20198;-65
2022/01/09 05:39:55;;;;;;;29.73;14.37;;;-5.50;99.90;;;;;;8416343;28;20202;-67
2022/01/09 05:43:56;;;;;;;21.47;10.33;;;-5.60;99.90;;;;;;8419709;28;20203;-66
2022/01/09 05:47:59;;;;;;;25.23;9.97;;;-5.70;99.90;;;;;;8419638;28;20182;-67
2022/01/09 05:52:00;;;;;;;18.70;9.47;;;-5.80;99.90;;;;;;8435775;28;20200;-66
2022/01/09 05:56:01;;;;;;;22.97;10.73;;;-5.80;99.90;;;;;;8419255;28;20271;-66
2022/01/09 06:00:04;;;;;;;24.33;10.53;;;-5.90;99.90;;;;;;8420275;28;20186;-65
2022/01/09 06:04:05;;;;;;;29.40;13.97;;;-5.80;99.90;;;;;;8418443;28;20201;-66
2022/01/09 06:08:06;;;;;;;36.83;14.50;;;-5.60;99.90;;;;;;8419909;28;20177;-65
2022/01/09 06:12:08;;;;;;;25.43;11.23;;;-5.40;99.90;;;;;;8420527;28;20186;-66
2022/01/09 06:16:08;;;;;;;20.83;9.87;;;-5.40;99.90;;;;;;8404628;28;20212;-66
2022/01/09 06:20:12;;;;;;;19.67;8.27;;;-5.60;99.90;;;;;;8417661;28;20186;-66
2022/01/09 06:24:12;;;;;;;18.30;8.37;;;-5.80;99.90;;;;;;8412349;28;20204;-66
2022/01/09 06:28:13;;;;;;;19.93;8.83;;;-5.90;99.90;;;;;;8419138;28;20184;-65
2022/01/09 06:32:14;;;;;;;19.23;9.30;;;-5.80;99.90;;;;;;8412152;28;20187;-65
2022/01/09 06:36:15;;;;;;;17.63;8.60;;;-5.90;99.90;;;;;;8414352;28;20191;-65
2022/01/09 06:40:16;;;;;;;16.20;8.37;;;-5.80;99.90;;;;;;8420041;28;20249;-67
2022/01/09 06:44:17;;;;;;;15.03;8.17;;;-5.70;99.90;;;;;;8415980;28;20210;-67
2022/01/09 06:48:18;;;;;;;20.30;9.67;;;-5.60;99.90;;;;;;8412213;28;20222;-65
2022/01/09 06:52:18;;;;;;;16.50;8.83;;;-5.50;99.90;;;;;;8419838;28;20186;-65
2022/01/09 06:56:19;;;;;;;20.43;8.97;;;-5.50;99.90;;;;;;8408976;28;20186;-65
2022/01/09 07:00:21;;;;;;;19.70;9.10;;;-5.50;99.90;;;;;;8405344;28;20180;-67
2022/01/09 07:04:22;;;;;;;22.77;10.17;;;-5.50;99.90;;;;;;8417459;28;20586;-66
2022/01/09 07:08:22;;;;;;;17.93;9.53;;;-5.40;99.90;;;;;;8416406;28;20235;-67
2022/01/09 07:12:23;;;;;;;35.40;16.53;;;-5.40;99.90;;;;;;8414741;28;20211;-66
2022/01/09 07:16:24;;;;;;;38.17;18.50;;;-5.40;99.90;;;;;;8389248;28;20210;-66
2022/01/09 07:20:25;;;;;;;40.50;21.00;;;-5.30;99.90;;;;;;8419884;28;20217;-66
2022/01/09 07:24:26;;;;;;;53.30;25.53;;;-5.20;99.90;;;;;;8417510;28;20230;-65
2022/01/09 07:28:27;;;;;;;60.60;26.07;;;-5.10;99.90;;;;;;8415652;28;20199;-65
2022/01/09 07:32:28;;;;;;;70.77;31.50;;;-5.00;99.90;;;;;;8417150;28;20184;-65
2022/01/09 07:36:29;;;;;;;79.20;33.93;;;-4.90;99.90;;;;;;8408964;28;20202;-66
2022/01/09 07:40:30;;;;;;;78.63;33.90;;;-4.80;99.90;;;;;;8416252;28;20196;-65
2022/01/09 07:44:31;;;;;;;60.30;27.80;;;-4.60;99.90;;;;;;8416330;28;20242;-65
2022/01/09 07:48:31;;;;;;;41.50;18.27;;;-4.40;99.90;;;;;;8409865;28;20510;-65
2022/01/09 07:52:35;;;;;;;32.23;14.23;;;-4.10;99.90;;;;;;8417780;28;20188;-65
2022/01/09 07:56:36;;;;;;;44.63;20.97;;;-3.80;99.90;;;;;;8415697;28;20184;-67
2022/01/09 08:00:37;;;;;;;40.07;21.43;;;-3.40;99.90;;;;;;8415080;28;20184;-65
2022/01/09 08:04:38;;;;;;;42.13;21.97;;;-3.20;99.90;;;;;;8408444;28;20255;-65
2022/01/09 08:08:38;;;;;;;60.87;28.87;;;-3.00;99.90;;;;;;8413304;28;20327;-66
2022/01/09 08:12:39;;;;;;;52.43;25.83;;;-2.80;99.90;;;;;;8409636;28;20234;-65
2022/01/09 08:16:40;;;;;;;63.60;26.17;;;-2.60;99.90;;;;;;8415545;28;20208;-66
2022/01/09 08:20:41;;;;;;;162.80;62.47;;;-2.30;99.90;;;;;;8409033;28;20187;-67
2022/01/09 08:24:42;;;;;;;192.30;70.73;;;-2.10;99.90;;;;;;8411802;28;20200;-63
2022/01/09 08:28:47;;;;;;;212.50;77.60;;;-1.90;99.90;;;;;;8414030;28;20575;-64
2022/01/09 08:32:49;;;;;;;214.57;79.27;;;-1.70;99.90;;;;;;8414857;28;20355;-65
2022/01/09 08:36:50;;;;;;;244.23;89.03;;;-1.50;99.90;;;;;;8413965;28;20181;-66
2022/01/09 08:40:51;;;;;;;235.43;86.93;;;-1.30;99.90;;;;;;8407873;28;20199;-65
2022/01/09 08:44:51;;;;;;;176.00;78.80;;;-1.10;99.90;;;;;;8419914;28;20187;-67
2022/01/09 08:48:52;;;;;;;173.37;72.87;;;-1.00;99.90;;;;;;8415333;28;20240;-67
2022/01/09 08:52:53;;;;;;;150.57;62.40;;;-0.90;99.90;;;;;;8422326;28;20175;-65
2022/01/09 08:56:54;;;;;;;174.73;72.27;;;-0.80;99.90;;;;;;8423622;28;20227;-65
2022/01/09 09:00:55;;;;;;;108.00;47.77;;;-0.60;99.90;;;;;;8416252;28;20180;-65
2022/01/09 09:04:56;;;;;;;69.63;32.10;;;-0.50;99.90;;;;;;8413649;28;20204;-66
2022/01/09 09:08:57;;;;;;;46.37;22.33;;;-0.30;99.90;;;;;;8420095;28;20249;-65
2022/01/09 09:12:58;;;;;;;57.17;24.43;;;-0.20;99.90;;;;;;8420807;28;20195;-65
2022/01/09 09:16:59;;;;;;;106.00;43.70;;;-0.10;99.90;;;;;;8420766;28;20200;-69
2022/01/09 09:20:59;;;;;;;133.63;57.80;;;0.00;99.90;;;;;;8421820;28;20238;-66
2022/01/09 09:25:00;;;;;;;255.13;99.83;;;0.10;99.90;;;;;;8422016;28;20212;-66
2022/01/09 09:29:01;;;;;;;109.03;43.87;;;0.20;99.90;;;;;;8420424;28;20439;-66
2022/01/09 09:33:05;;;;;;;78.37;34.07;;;0.20;99.90;;;;;;8420209;28;20233;-66
2022/01/09 09:37:06;;;;;;;89.10;40.53;;;0.30;99.90;;;;;;8413495;28;20184;-67
2022/01/09 09:41:07;;;;;;;90.33;40.97;;;0.40;99.90;;;;;;8418958;28;20201;-66
2022/01/09 09:45:10;;;;;;;70.60;35.93;;;0.50;99.90;;;;;;8416091;28;20200;-66
2022/01/09 09:49:10;;;;;;;82.43;40.73;;;0.60;99.90;;;;;;8420961;28;20180;-65
2022/01/09 09:53:11;;;;;;;69.13;38.13;;;0.70;99.90;;;;;;8420232;28;20181;-66
2022/01/09 09:57:12;;;;;;;75.80;40.17;;;0.80;99.90;;;;;;8419733;28;20180;-66
2022/01/09 10:01:25;;;;;;;76.40;32.87;;;0.90;99.90;;;;;;8416035;28;20216;-66
2022/01/09 10:05:44;;;;;;;64.80;32.20;;;1.00;99.90;;;;;;8415262;28;20299;-67
2022/01/09 10:09:56;;;;;;;86.90;35.03;;;1.10;99.90;;;;;;8419877;28;20195;-66
2022/01/09 10:14:15;;;;;;;54.17;25.00;;;1.20;99.90;;;;;;8418404;28;20185;-67
2022/01/09 10:18:41;;;;;;;54.80;23.13;;;1.30;99.90;;;;;;8401116;28;20236;-67
2022/01/09 10:22:49;;;;;;;71.43;28.43;;;1.40;99.90;;;;;;8413743;28;20208;-66
2022/01/09 10:26:50;;;;;;;63.33;27.53;;;1.60;99.90;;;;;;8413028;28;20196;-66
2022/01/09 10:30:52;;;;;;;71.63;30.93;;;1.70;99.90;;;;;;8413579;28;20180;-66
2022/01/09 10:35:06;;;;;;;68.33;27.80;;;1.80;99.90;;;;;;8416633;28;20181;-66
2022/01/09 10:39:16;;;;;;;52.07;24.20;;;1.90;99.90;;;;;;8419361;28;20204;-66
2022/01/09 10:43:35;;;;;;;43.87;20.20;;;1.90;99.90;;;;;;8406071;28;20326;-66
2022/01/09 10:47:37;;;;;;;37.93;16.33;;;2.00;99.90;;;;;;8416804;28;20795;-66
2022/01/09 10:51:40;;;;;;;36.80;17.70;;;2.00;99.90;;;;;;8412580;28;20237;-66
2022/01/09 10:55:41;;;;;;;36.70;16.83;;;2.10;99.90;;;;;;8419389;28;20233;-65
2022/01/09 10:59:42;;;;;;;35.57;17.27;;;2.30;99.90;;;;;;8418606;28;20198;-66
2022/01/09 11:03:47;;;;;;;38.30;19.73;;;2.50;99.90;;;;;;8414844;28;20184;-66
2022/01/09 11:07:49;;;;;;;31.63;14.87;;;2.60;99.90;;;;;;8417871;28;20180;-65
2022/01/09 11:11:51;;;;;;;26.03;13.23;;;2.70;99.90;;;;;;8414927;28;20178;-66
2022/01/09 11:20:12;;;;;;;61.00;23.93;;;2.90;99.90;;;;;;8418943;28;20225;-66
2022/01/09 11:24:39;;;;;;;62.27;24.23;;;3.00;99.90;;;;;;8417611;28;20227;-65
2022/01/09 11:28:43;;;;;;;65.37;27.60;;;3.20;94.30;;;;;;8412734;28;20174;-66
2022/01/09 11:33:19;;;;;;;79.67;36.63;;;3.30;50.60;;;;;;8414300;28;20176;-66
2022/01/09 11:37:49;;;;;;;50.33;23.57;;;3.40;50.20;;;;;;8408805;28;20193;-65
2022/01/09 11:42:15;;;;;;;36.63;21.37;;;3.50;94.80;;;;;;8415299;28;20197;-65
2022/01/09 11:46:16;;;;;;;44.37;21.83;;;3.50;56.00;;;;;;8408149;28;20204;-66
2022/01/09 11:50:18;;;;;;;38.80;21.23;;;3.20;1.00;;;;;;8409473;28;20299;-65
2022/01/09 11:54:20;;;;;;;34.67;17.07;;;3.00;9.90;;;;;;8417838;28;20178;-65
2022/01/09 11:58:22;;;;;;;40.67;17.83;;;3.10;51.80;;;;;;8416178;28;20185;-65
2022/01/09 12:02:27;;;;;;;32.00;15.80;;;3.10;14.80;;;;;;8401917;28;20481;-65
2022/01/09 12:06:40;;;;;;;32.73;14.87;;;3.20;16.50;;;;;;8416347;28;20212;-65
2022/01/09 12:10:50;;;;;;;41.23;19.83;;;3.30;9.70;;;;;;8407058;28;20387;-65
2022/01/09 12:19:03;;;;;;;34.43;17.57;;;3.50;1.00;;;;;;8413555;28;20176;-66
2022/01/09 12:23:06;;;;;;;35.17;20.10;;;3.50;1.00;;;;;;8423342;28;20203;-65
2022/01/09 12:27:35;;;;;;;34.20;18.80;;;3.60;1.00;;;;;;8419990;28;20208;-65
2022/01/09 12:31:37;;;;;;;58.20;28.07;;;3.60;1.00;;;;;;8398712;28;20283;-66
2022/01/09 12:35:41;;;;;;;72.83;36.97;;;3.60;1.00;;;;;;8421215;28;20241;-65
2022/01/09 12:39:46;;;;;;;66.17;34.90;;;3.70;1.00;;;;;;8406051;28;20323;-66
2022/01/09 12:43:49;;;;;;;53.63;28.43;;;3.70;1.00;;;;;;8418146;28;20180;-65
2022/01/09 12:47:50;;;;;;;60.90;30.03;;;3.70;1.00;;;;;;8423044;28;20215;-65
2022/01/09 12:51:53;;;;;;;50.20;24.63;;;3.60;1.00;;;;;;8422023;28;20172;-65
2022/01/09 12:56:21;;;;;;;36.90;21.60;;;3.70;1.00;;;;;;8420671;28;20392;-65
2022/01/09 13:00:27;;;;;;;43.47;22.50;;;3.70;1.00;;;;;;8419971;28;20188;-66
2022/01/09 13:04:34;;;;;;;55.10;27.30;;;3.70;1.00;;;;;;8420966;28;20492;-65
2022/01/09 13:08:40;;;;;;;48.13;24.73;;;3.70;1.00;;;;;;8412835;28;20226;-64
2022/01/09 13:13:02;;;;;;;70.40;33.57;;;3.60;1.00;;;;;;8419113;28;20177;-67
2022/01/09 13:17:04;;;;;;;60.43;30.77;;;3.60;62.80;;;;;;8422502;28;20207;-65
2022/01/09 13:21:19;;;;;;;61.47;29.73;;;3.60;70.60;;;;;;8420076;28;20208;-66
2022/01/09 13:25:20;;;;;;;52.63;27.47;;;3.70;52.60;;;;;;8413923;28;20260;-66
2022/01/09 13:29:42;;;;;;;55.67;28.70;;;3.70;27.60;;;;;;8420806;28;20204;-65
2022/01/09 13:33:57;;;;;;;66.00;35.60;;;3.60;31.60;;;;;;8422259;28;20184;-66
2022/01/09 13:37:59;;;;;;;85.80;42.87;;;3.60;2.30;;;;;;8422368;28;20267;-66
2022/01/09 13:42:03;;;;;;;105.23;50.17;;;3.50;1.00;;;;;;8422032;28;20201;-65
2022/01/09 13:46:13;;;;;;;172.60;82.40;;;3.50;1.00;;;;;;8420631;28;20208;-64
2022/01/09 13:50:20;;;;;;;158.37;80.60;;;3.40;1.00;;;;;;8420758;28;20176;-65
2022/01/09 13:54:23;;;;;;;150.07;70.63;;;3.30;8.60;;;;;;8387322;28;20183;-65
2022/01/09 13:58:27;;;;;;;100.90;51.67;;;3.30;68.20;;;;;;8405360;28;20266;-64
2022/01/09 14:02:39;;;;;;;67.43;34.73;;;3.20;99.90;;;;;;8420156;28;20236;-64
2022/01/09 14:06:40;;;;;;;56.13;26.23;;;3.10;99.90;;;;;;8415935;28;20218;-64
2022/01/09 14:10:50;;;;;;;52.23;21.77;;;3.00;99.90;;;;;;8421182;28;20176;-65
2022/01/09 14:14:52;;;;;;;46.13;18.97;;;2.90;99.90;;;;;;8418996;28;20185;-65
2022/01/09 14:18:56;;;;;;;40.27;19.73;;;2.90;99.90;;;;;;8415574;28;20222;-64
2022/01/09 14:23:08;;;;;;;38.27;17.30;;;2.80;99.90;;;;;;8417653;28;20176;-64
2022/01/09 14:27:09;;;;;;;36.43;16.03;;;2.70;99.90;;;;;;8414104;28;20200;-65
2022/01/09 14:31:14;;;;;;;35.33;15.83;;;2.70;99.90;;;;;;8414870;28;20240;-64
2022/01/09 14:35:45;;;;;;;25.93;13.53;;;2.70;99.90;;;;;;8419206;28;20184;-64
2022/01/09 14:39:46;;;;;;;26.60;13.73;;;2.60;99.90;;;;;;8413007;28;20286;-64
2022/01/09 14:43:47;;;;;;;26.43;13.90;;;2.50;99.90;;;;;;8416904;28;20187;-66
2022/01/09 14:47:48;;;;;;;23.77;13.20;;;2.50;99.90;;;;;;8414504;28;20247;-64
2022/01/09 14:51:50;;;;;;;23.80;12.90;;;2.40;99.90;;;;;;8413770;28;20184;-64
2022/01/09 14:55:51;;;;;;;20.83;11.20;;;2.40;99.90;;;;;;8417697;28;20216;-64
2022/01/09 14:59:52;;;;;;;25.13;13.90;;;2.30;99.90;;;;;;8413624;28;20184;-64
2022/01/09 15:03:56;;;;;;;20.80;10.60;;;2.20;99.90;;;;;;8417485;28;20184;-64
2022/01/09 15:07:57;;;;;;;16.53;9.57;;;2.10;99.90;;;;;;8413150;28;20179;-66
2022/01/09 15:11:58;;;;;;;14.23;7.83;;;2.10;99.90;;;;;;8416582;28;20268;-64
2022/01/09 15:16:01;;;;;;;15.37;8.00;;;2.00;99.90;;;;;;8418257;28;20208;-66
2022/01/09 15:20:03;;;;;;;18.00;8.90;;;2.00;99.90;;;;;;8418460;28;20206;-65
2022/01/09 15:24:04;;;;;;;14.97;8.23;;;1.90;99.90;;;;;;8416670;28;20565;-65
2022/01/09 15:28:06;;;;;;;19.00;9.53;;;1.90;99.90;;;;;;8417348;28;20607;-64
2022/01/09 15:32:07;;;;;;;16.17;8.83;;;1.80;99.90;;;;;;8418383;28;20183;-64
2022/01/09 15:36:08;;;;;;;20.83;8.47;;;1.80;99.90;;;;;;8413600;28;20186;-63
2022/01/09 15:40:09;;;;;;;15.23;8.20;;;1.80;99.90;;;;;;8406600;28;20264;-66
2022/01/09 15:44:14;;;;;;;15.93;8.33;;;1.70;99.90;;;;;;8418399;28;20188;-64
2022/01/09 15:48:15;;;;;;;14.13;7.60;;;1.70;99.90;;;;;;8411763;28;20189;-64
2022/01/09 15:52:17;;;;;;;14.17;7.47;;;1.70;99.90;;;;;;8419628;28;20210;-67
2022/01/09 15:56:18;;;;;;;28.40;14.50;;;1.70;99.90;;;;;;8426351;28;20216;-65
2022/01/09 16:00:19;;;;;;;28.57;14.67;;;1.70;99.90;;;;;;8425600;28;20626;-64
2022/01/09 16:04:20;;;;;;;32.50;17.23;;;1.70;99.90;;;;;;8424403;28;20208;-65
2022/01/09 16:08:21;;;;;;;27.30;14.40;;;1.70;99.90;;;;;;8424756;28;20184;-66
2022/01/09 16:12:22;;;;;;;28.97;14.70;;;1.60;99.90;;;;;;8421561;28;20235;-64
2022/01/09 16:16:23;;;;;;;28.60;13.90;;;1.60;99.90;;;;;;8411872;28;20250;-64
2022/01/09 16:20:24;;;;;;;32.13;17.07;;;1.60;99.90;;;;;;8418386;28;20233;-65
2022/01/09 16:24:26;;;;;;;32.30;17.47;;;1.50;99.90;;;;;;8421124;28;20195;-65
2022/01/09 16:28:28;;;;;;;29.20;15.70;;;1.50;99.90;;;;;;8423864;28;20180;-64
2022/01/09 16:32:28;;;;;;;27.93;13.73;;;1.50;99.90;;;;;;8422012;28;20184;-65
2022/01/09 16:36:29;;;;;;;28.60;16.50;;;1.40;99.90;;;;;;8418460;28;20215;-64
2022/01/09 16:40:30;;;;;;;35.50;19.37;;;1.40;99.90;;;;;;8416503;28;20203;-64
2022/01/09 16:44:31;;;;;;;32.13;16.87;;;1.40;99.90;;;;;;8424511;28;20201;-65
2022/01/09 16:48:33;;;;;;;33.23;16.43;;;1.30;99.90;;;;;;8416988;28;20181;-64
2022/01/09 16:52:36;;;;;;;28.37;14.43;;;1.30;99.90;;;;;;8416088;28;20183;-64
2022/01/09 16:56:37;;;;;;;22.00;13.03;;;1.30;99.90;;;;;;8422349;28;20188;-65
2022/01/09 17:00:37;;;;;;;24.47;13.70;;;1.30;99.90;;;;;;8416835;28;20487;-64
2022/01/09 17:04:38;;;;;;;74.13;32.17;;;1.30;99.90;;;;;;8420072;28;20257;-64
2022/01/09 17:08:39;;;;;;;68.67;32.17;;;1.40;99.90;;;;;;8421688;28;20207;-63
2022/01/09 17:12:41;;;;;;;67.03;31.63;;;1.40;99.90;;;;;;8422102;28;20224;-65
2022/01/09 17:16:42;;;;;;;57.53;28.03;;;1.30;99.90;;;;;;8422897;28;20205;-66
2022/01/09 17:20:43;;;;;;;43.50;22.23;;;1.30;99.90;;;;;;8420137;28;20177;-63
2022/01/09 17:24:44;;;;;;;33.43;17.50;;;1.30;99.90;;;;;;8422130;28;20192;-64
2022/01/09 17:28:45;;;;;;;28.77;14.73;;;1.30;99.90;;;;;;8418535;28;20214;-64
2022/01/09 17:32:47;;;;;;;26.03;13.20;;;1.30;99.90;;;;;;8420441;28;20177;-64
2022/01/09 17:36:48;;;;;;;23.03;13.10;;;1.30;99.90;;;;;;8419782;28;20223;-64
2022/01/09 17:40:49;;;;;;;20.03;11.23;;;1.30;99.90;;;;;;8420633;28;20197;-65
2022/01/09 17:44:50;;;;;;;21.23;11.83;;;1.30;99.90;;;;;;8419976;28;20219;-64
2022/01/09 17:48:52;;;;;;;26.47;13.50;;;1.20;99.90;;;;;;8421172;28;20253;-65
2022/01/09 17:52:53;;;;;;;45.43;21.33;;;1.20;99.90;;;;;;8421068;28;20194;-64
2022/01/09 17:56:54;;;;;;;60.27;30.50;;;1.20;99.90;;;;;;8421226;28;20188;-64
2022/01/09 18:00:55;;;;;;;54.83;27.23;;;1.20;99.90;;;;;;8414062;28;20287;-64
2022/01/09 18:04:56;;;;;;;52.30;24.53;;;1.20;99.90;;;;;;8417016;28;20226;-66
2022/01/09 18:08:58;;;;;;;39.53;21.20;;;1.20;99.90;;;;;;8411186;28;20230;-66
2022/01/09 18:12:59;;;;;;;39.50;21.10;;;1.20;99.90;;;;;;8418105;28;20173;-64
2022/01/09 18:17:00;;;;;;;46.00;23.57;;;1.20;99.90;;;;;;8419044;28;20199;-64
2022/01/09 18:21:01;;;;;;;41.70;20.93;;;1.20;99.90;;;;;;8413352;28;20226;-64
2022/01/09 18:25:04;;;;;;;35.37;18.57;;;1.20;99.90;;;;;;8419639;28;20250;-63
2022/01/09 18:29:05;;;;;;;27.07;13.50;;;1.20;99.90;;;;;;8411225;28;20177;-65
2022/01/09 18:33:06;;;;;;;24.80;12.57;;;1.20;99.90;;;;;;8413824;28;20176;-64
2022/01/09 18:37:07;;;;;;;24.73;12.90;;;1.20;99.90;;;;;;8414987;28;20211;-64
2022/01/09 18:41:08;;;;;;;23.40;12.70;;;1.20;99.90;;;;;;8414908;28;20196;-64
2022/01/09 18:45:10;;;;;;;26.90;13.23;;;1.20;99.90;;;;;;8417252;28;20230;-64
2022/01/09 18:49:13;;;;;;;27.17;14.07;;;1.30;99.90;;;;;;8412863;28;20566;-64
2022/01/09 18:53:14;;;;;;;26.00;13.97;;;1.30;99.90;;;;;;8412838;28;20164;-65
2022/01/09 18:57:15;;;;;;;26.47;14.40;;;1.30;99.90;;;;;;8419351;28;20184;-64
2022/01/09 19:01:18;;;;;;;25.10;14.40;;;1.30;99.90;;;;;;8419067;28;20176;-64
2022/01/09 19:05:21;;;;;;;27.13;14.03;;;1.30;99.90;;;;;;8409628;28;20200;-64
2022/01/09 19:09:22;;;;;;;30.77;15.57;;;1.40;99.90;;;;;;8415403;28;20242;-65
2022/01/09 19:13:24;;;;;;;24.53;12.70;;;1.50;99.90;;;;;;8406341;28;20185;-66
2022/01/09 19:17:25;;;;;;;19.13;11.73;;;1.60;99.90;;;;;;8413944;28;20204;-63
2022/01/09 19:21:32;;;;;;;17.53;10.70;;;1.70;99.90;;;;;;8409642;28;20230;-66
2022/01/09 19:25:36;;;;;;;17.43;10.10;;;1.90;99.90;;;;;;8416550;28;20196;-64
2022/01/09 19:29:37;;;;;;;14.17;9.67;;;2.00;99.90;;;;;;8417019;28;20180;-65
2022/01/09 19:33:38;;;;;;;13.20;8.47;;;2.10;99.90;;;;;;8412570;28;20205;-64
2022/01/09 19:37:39;;;;;;;13.60;8.77;;;2.20;99.90;;;;;;8412812;28;20187;-66
2022/01/09 19:41:40;;;;;;;14.20;8.97;;;2.20;99.90;;;;;;8415395;28;20192;-64
2022/01/09 19:45:41;;;;;;;14.03;8.53;;;2.20;99.90;;;;;;8418099;28;20207;-64
2022/01/09 19:49:43;;;;;;;14.93;9.13;;;2.20;99.90;;;;;;8409706;28;20181;-66
2022/01/09 19:53:44;;;;;;;14.03;8.77;;;2.20;99.90;;;;;;8416925;28;20172;-65
2022/01/09 19:57:45;;;;;;;15.80;8.70;;;2.30;99.90;;;;;;8418798;28;20202;-65
2022/01/09 20:01:46;;;;;;;15.27;9.67;;;2.30;99.90;;;;;;8419011;28;20183;-63
2022/01/09 20:05:49;;;;;;;13.70;8.57;;;2.30;99.90;;;;;;8417166;28;20232;-65
2022/01/09 20:09:50;;;;;;;13.57;8.80;;;2.30;99.90;;;;;;8413376;28;20183;-64
2022/01/09 20:13:54;;;;;;;14.00;9.03;;;2.30;99.90;;;;;;8414317;28;20173;-64
2022/01/09 20:17:57;;;;;;;13.53;8.47;;;2.30;99.90;;;;;;8413859;28;20231;-64
2022/01/09 20:21:59;;;;;;;13.87;8.20;;;2.30;99.90;;;;;;8416135;28;20185;-64
2022/01/09 20:26:00;;;;;;;14.97;9.53;;;2.40;99.90;;;;;;8402438;28;20200;-66
2022/01/09 20:30:05;;;;;;;15.23;9.50;;;2.40;99.90;;;;;;8415040;28;20173;-64
2022/01/09 20:34:07;;;;;;;12.83;8.13;;;2.40;99.90;;;;;;8414541;28;20185;-64
2022/01/09 20:38:08;;;;;;;14.57;8.73;;;2.50;99.90;;;;;;8381090;28;20173;-64
2022/01/09 20:42:09;;;;;;;16.50;9.40;;;2.40;99.90;;;;;;8422559;28;20195;-64
2022/01/09 20:46:11;;;;;;;15.93;8.80;;;2.40;99.90;;;;;;8418920;28;20231;-64
2022/01/09 20:50:12;;;;;;;15.80;9.07;;;2.50;99.90;;;;;;8421257;28;20202;-65
2022/01/09 20:54:15;;;;;;;15.10;9.27;;;2.50;99.90;;;;;;8415088;28;20216;-64
2022/01/09 20:58:20;;;;;;;14.30;8.73;;;2.50;99.90;;;;;;8418649;28;20209;-64